Time;durP1;ratioP1;P1;durP2;ratioP2;P2;SDS_P1;SDS_P2;PMS_P1;PMS_P2;Temp;Humidity;BMP_temperature;BMP_pressure;BME280_temperature;BME280_humidity;BME280_pressure;Samples;Min_cycle;Max_cycle;Signal;HPM_P1;HPM_P2
2023/12/12 00:01:50;;;;;;;8.33;3.03;;;5.60;99.90;;;;;;5007593;28;20105;-84
2023/12/12 00:04:16;;;;;;;6.00;2.50;;;5.60;99.90;;;;;;4992542;28;20048;-84
2023/12/12 00:06:42;;;;;;;9.17;3.10;;;5.50;99.90;;;;;;4995750;28;20052;-85
2023/12/12 00:09:08;;;;;;;6.60;2.83;;;5.50;99.90;;;;;;4987323;28;20038;-85
2023/12/12 00:11:34;;;;;;;11.27;3.07;;;5.50;99.90;;;;;;4978591;28;20579;-84
2023/12/12 00:14:00;;;;;;;6.53;3.00;;;5.40;99.90;;;;;;4973819;28;20049;-84
2023/12/12 00:16:26;;;;;;;7.47;2.80;;;5.40;99.90;;;;;;5003023;28;20042;-83
2023/12/12 00:18:51;;;;;;;4.33;2.70;;;5.30;99.90;;;;;;4975658;28;20050;-84
2023/12/12 00:21:17;;;;;;;6.37;2.60;;;5.40;99.90;;;;;;4987794;28;20042;-83
2023/12/12 00:23:44;;;;;;;6.07;2.53;;;5.30;99.90;;;;;;5029448;28;20148;-84
2023/12/12 00:26:12;;;;;;;7.33;2.63;;;5.30;99.90;;;;;;5023182;28;20441;-84
2023/12/12 00:28:38;;;;;;;5.13;2.80;;;5.30;99.90;;;;;;4977959;28;20050;-84
2023/12/12 00:31:04;;;;;;;6.30;2.40;;;5.20;99.90;;;;;;5004540;28;20267;-84
2023/12/12 00:33:30;;;;;;;7.50;2.90;;;5.10;99.90;;;;;;4992669;28;20075;-84
2023/12/12 00:35:57;;;;;;;6.07;2.63;;;5.10;99.90;;;;;;4993322;28;20045;-83
2023/12/12 00:38:28;;;;;;;8.27;3.03;;;5.10;99.90;;;;;;5025457;28;20050;-84
2023/12/12 00:40:55;;;;;;;6.60;2.58;;;5.10;99.90;;;;;;5021369;28;20056;-85
2023/12/12 00:43:22;;;;;;;6.33;2.60;;;5.00;99.90;;;;;;4991319;28;20048;-84
2023/12/12 00:45:48;;;;;;;6.20;2.63;;;5.00;99.90;;;;;;5003823;28;20038;-85
2023/12/12 00:48:14;;;;;;;5.83;2.87;;;5.00;99.90;;;;;;5019003;28;20044;-85
2023/12/12 00:50:40;;;;;;;6.77;2.90;;;5.00;99.90;;;;;;4995322;28;20045;-84
2023/12/12 00:53:05;;;;;;;7.27;2.67;;;4.90;99.90;;;;;;4993267;28;20048;-84
2023/12/12 00:55:31;;;;;;;6.97;2.83;;;4.90;99.90;;;;;;4993518;28;20338;-86
2023/12/12 00:57:57;;;;;;;5.60;2.50;;;4.90;99.90;;;;;;4996431;28;20065;-85
2023/12/12 01:00:23;;;;;;;6.20;2.67;;;4.90;99.90;;;;;;5011208;28;20058;-84
2023/12/12 01:02:49;;;;;;;6.17;2.53;;;4.90;99.90;;;;;;5019858;28;20113;-85
2023/12/12 01:05:15;;;;;;;4.63;2.67;;;4.90;99.90;;;;;;4992534;28;20050;-84
2023/12/12 01:07:41;;;;;;;5.97;2.43;;;4.80;99.90;;;;;;4998447;28;20046;-84
2023/12/12 01:10:07;;;;;;;6.50;2.70;;;4.70;99.90;;;;;;4989671;28;20527;-83
2023/12/12 01:12:33;;;;;;;7.10;2.70;;;4.70;99.90;;;;;;4999368;28;20089;-83
2023/12/12 01:14:59;;;;;;;6.17;2.10;;;4.60;99.90;;;;;;4993259;28;20045;-83
2023/12/12 01:17:26;;;;;;;4.10;1.93;;;4.50;99.90;;;;;;5009889;28;20050;-84
2023/12/12 01:19:52;;;;;;;4.00;2.43;;;4.50;99.90;;;;;;5022541;28;20041;-84
2023/12/12 01:22:17;;;;;;;4.93;2.00;;;4.50;99.90;;;;;;4991940;28;20103;-84
2023/12/12 01:24:43;;;;;;;6.47;2.83;;;4.60;99.90;;;;;;4997732;28;20282;-84
2023/12/12 01:27:09;;;;;;;7.10;2.40;;;4.50;99.90;;;;;;4997565;28;20059;-83
2023/12/12 01:29:35;;;;;;;4.43;2.30;;;4.50;99.90;;;;;;5017328;28;20420;-86
2023/12/12 01:32:01;;;;;;;5.27;2.20;;;4.40;99.90;;;;;;5018395;28;20045;-85
2023/12/12 01:34:27;;;;;;;6.27;2.50;;;4.40;99.90;;;;;;5010228;28;20056;-86
2023/12/12 01:36:53;;;;;;;6.67;2.27;;;4.30;99.90;;;;;;4980566;28;20089;-85
2023/12/12 01:39:18;;;;;;;5.60;2.33;;;4.30;99.90;;;;;;4996196;28;20516;-85
2023/12/12 01:41:48;;;;;;;4.87;2.33;;;4.30;99.90;;;;;;4992708;28;20049;-85
2023/12/12 01:44:14;;;;;;;5.87;2.40;;;4.20;99.90;;;;;;5006545;28;20049;-85
2023/12/12 01:46:42;;;;;;;6.67;2.67;;;4.20;99.90;;;;;;4976731;28;20034;-84
2023/12/12 01:49:09;;;;;;;5.17;2.40;;;4.10;99.90;;;;;;5004051;28;20052;-85
2023/12/12 01:51:35;;;;;;;5.63;2.80;;;4.10;99.90;;;;;;4992128;28;20046;-85
2023/12/12 01:54:02;;;;;;;6.47;2.90;;;4.10;99.90;;;;;;5025025;28;20044;-86
2023/12/12 01:56:33;;;;;;;5.70;2.60;;;4.10;99.90;;;;;;5017977;28;20059;-85
2023/12/12 01:58:59;;;;;;;6.07;2.70;;;4.10;99.90;;;;;;5009865;28;20076;-86
2023/12/12 02:01:27;;;;;;;6.87;2.93;;;4.10;99.90;;;;;;4994746;28;20143;-86
2023/12/12 02:03:54;;;;;;;6.27;3.40;;;4.10;99.90;;;;;;5000780;28;20057;-86
2023/12/12 02:06:24;;;;;;;6.50;3.00;;;4.10;99.90;;;;;;5016745;28;20080;-86
2023/12/12 02:08:53;;;;;;;7.57;2.93;;;4.10;99.90;;;;;;4997751;28;20448;-84
2023/12/12 02:11:21;;;;;;;9.07;2.90;;;4.00;99.90;;;;;;5024148;28;20049;-86
2023/12/12 02:13:48;;;;;;;7.70;3.40;;;4.00;99.90;;;;;;5020752;28;20046;-86
2023/12/12 02:16:14;;;;;;;5.43;2.43;;;3.90;99.90;;;;;;5021810;28;20050;-85
2023/12/12 02:18:39;;;;;;;6.63;2.50;;;3.90;99.90;;;;;;5004132;28;20099;-85
2023/12/12 02:21:05;;;;;;;5.77;2.60;;;3.90;99.90;;;;;;4991207;28;20041;-85
2023/12/12 02:23:32;;;;;;;5.87;2.83;;;3.80;99.90;;;;;;4983388;28;20045;-85
2023/12/12 02:25:59;;;;;;;4.70;2.60;;;3.90;99.90;;;;;;5002869;28;20115;-85
2023/12/12 02:28:25;;;;;;;5.20;2.70;;;3.80;99.90;;;;;;5003306;28;20053;-84
2023/12/12 02:30:51;;;;;;;8.70;2.87;;;3.90;99.90;;;;;;4988515;28;20049;-84
2023/12/12 02:33:17;;;;;;;6.83;3.00;;;3.90;99.90;;;;;;4995353;28;20051;-84
2023/12/12 02:35:43;;;;;;;6.13;2.70;;;3.90;99.90;;;;;;4997622;28;20061;-85
2023/12/12 02:38:09;;;;;;;5.57;3.13;;;3.90;99.90;;;;;;5001045;28;20052;-83
2023/12/12 02:40:34;;;;;;;7.83;2.90;;;3.90;99.90;;;;;;5021028;28;20363;-84
2023/12/12 02:43:00;;;;;;;7.30;2.80;;;3.80;99.90;;;;;;4992761;28;20072;-85
2023/12/12 02:45:26;;;;;;;8.20;2.57;;;3.80;99.90;;;;;;5003457;28;20037;-85
2023/12/12 02:47:52;;;;;;;5.70;2.63;;;3.80;99.90;;;;;;4999722;28;20065;-84
2023/12/12 02:50:19;;;;;;;8.43;2.73;;;3.70;99.90;;;;;;5007716;28;20068;-84
2023/12/12 02:52:44;;;;;;;6.87;2.90;;;3.70;99.90;;;;;;5024280;28;20045;-84
2023/12/12 02:55:10;;;;;;;4.90;3.10;;;3.80;99.90;;;;;;4993201;28;20061;-84
2023/12/12 02:57:36;;;;;;;4.77;2.77;;;3.80;99.90;;;;;;4974290;28;20045;-84
2023/12/12 03:00:03;;;;;;;5.50;2.40;;;3.80;99.90;;;;;;5003757;28;20134;-84
2023/12/12 03:02:30;;;;;;;4.17;2.90;;;3.70;99.90;;;;;;5001657;28;20401;-84
2023/12/12 03:04:57;;;;;;;6.83;2.90;;;3.70;99.90;;;;;;4978830;28;20136;-84
2023/12/12 03:07:23;;;;;;;5.80;2.53;;;3.70;99.90;;;;;;5000019;28;20434;-84
2023/12/12 03:09:49;;;;;;;7.40;3.10;;;3.70;99.90;;;;;;5019518;28;20051;-83
2023/12/12 03:12:15;;;;;;;5.20;2.73;;;3.60;99.90;;;;;;4983237;28;20494;-83
2023/12/12 03:14:41;;;;;;;6.30;2.80;;;3.60;99.90;;;;;;5001425;28;20042;-83
2023/12/12 03:17:07;;;;;;;7.80;2.90;;;3.60;99.90;;;;;;5003451;28;20050;-84
2023/12/12 03:19:33;;;;;;;6.40;2.50;;;3.60;99.90;;;;;;5000513;28;20045;-84
2023/12/12 03:21:58;;;;;;;5.97;2.60;;;3.50;99.90;;;;;;4972195;28;20042;-84
2023/12/12 03:24:24;;;;;;;6.10;3.00;;;3.50;99.90;;;;;;4976923;28;20309;-84
2023/12/12 03:26:50;;;;;;;4.37;2.57;;;3.50;99.90;;;;;;5017158;28;20046;-84
2023/12/12 03:29:15;;;;;;;6.67;2.77;;;3.50;99.90;;;;;;4998299;28;20927;-84
2023/12/12 03:31:41;;;;;;;7.10;3.10;;;3.40;99.90;;;;;;5010267;28;20091;-84
2023/12/12 03:34:08;;;;;;;6.87;3.00;;;3.40;99.90;;;;;;4971783;28;20259;-83
2023/12/12 03:36:34;;;;;;;5.97;2.73;;;3.40;99.90;;;;;;4990021;28;20399;-83
2023/12/12 03:39:00;;;;;;;4.47;2.83;;;3.40;99.90;;;;;;4992971;28;20136;-84
2023/12/12 03:41:27;;;;;;;5.80;2.83;;;3.30;99.90;;;;;;5000154;28;20408;-83
2023/12/12 03:43:53;;;;;;;5.53;3.37;;;3.30;99.90;;;;;;4988332;28;20058;-83
2023/12/12 03:46:20;;;;;;;8.07;3.37;;;3.30;99.90;;;;;;5006556;28;20038;-84
2023/12/12 03:48:46;;;;;;;7.03;3.00;;;3.30;99.90;;;;;;4998689;28;20046;-84
2023/12/12 03:51:12;;;;;;;5.30;2.80;;;3.20;99.90;;;;;;4998368;28;20071;-84
2023/12/12 03:53:41;;;;;;;6.83;3.00;;;3.20;99.90;;;;;;5001474;28;20049;-84
2023/12/12 03:56:07;;;;;;;12.73;3.10;;;3.20;99.90;;;;;;5013571;28;20154;-84
2023/12/12 03:58:33;;;;;;;3.20;1.87;;;3.10;99.90;;;;;;4998541;28;20046;-84
2023/12/12 04:00:59;;;;;;;5.87;2.70;;;3.10;99.90;;;;;;4998860;28;20057;-84
2023/12/12 04:03:25;;;;;;;13.63;5.00;;;3.10;99.90;;;;;;5014735;28;20615;-84
2023/12/12 04:05:51;;;;;;;8.20;4.47;;;3.10;99.90;;;;;;4998190;28;20048;-83
2023/12/12 04:08:16;;;;;;;9.33;4.10;;;3.10;99.90;;;;;;4997298;28;20046;-83
2023/12/12 04:10:42;;;;;;;6.00;3.83;;;3.10;99.90;;;;;;4996362;28;20046;-84
2023/12/12 04:13:08;;;;;;;9.70;4.17;;;3.10;99.90;;;;;;5021567;28;20050;-83
2023/12/12 04:15:33;;;;;;;9.83;4.60;;;3.00;99.90;;;;;;4993536;28;20520;-84
2023/12/12 04:17:59;;;;;;;8.03;5.07;;;3.10;99.90;;;;;;4984958;28;20046;-84
2023/12/12 04:20:25;;;;;;;6.93;3.77;;;3.00;99.90;;;;;;4994950;28;20155;-83
2023/12/12 04:22:50;;;;;;;5.77;3.93;;;3.00;99.90;;;;;;4999821;28;20042;-83
2023/12/12 04:25:16;;;;;;;9.30;5.00;;;3.00;99.90;;;;;;5003016;28;20046;-83
2023/12/12 04:27:42;;;;;;;10.23;5.90;;;3.00;99.90;;;;;;4975727;28;20136;-83
2023/12/12 04:30:08;;;;;;;7.60;4.60;;;3.00;99.90;;;;;;4998854;28;20056;-84
2023/12/12 04:32:34;;;;;;;13.97;6.57;;;3.10;99.90;;;;;;5004562;28;20131;-84
2023/12/12 04:35:00;;;;;;;9.83;4.70;;;3.10;99.90;;;;;;5006793;28;20115;-85
2023/12/12 04:37:26;;;;;;;15.80;4.70;;;3.10;99.90;;;;;;5006830;28;20103;-84
2023/12/12 04:39:52;;;;;;;9.50;3.97;;;3.10;99.90;;;;;;4996287;28;20080;-85
2023/12/12 04:42:19;;;;;;;7.40;4.50;;;3.10;99.90;;;;;;4992282;28;20049;-84
2023/12/12 04:44:45;;;;;;;8.13;4.47;;;3.10;99.90;;;;;;4981944;28;20436;-84
2023/12/12 04:47:11;;;;;;;6.43;3.83;;;3.20;99.90;;;;;;4999567;28;20113;-84
2023/12/12 04:49:36;;;;;;;5.93;3.77;;;3.20;99.90;;;;;;4999567;28;20097;-84
2023/12/12 04:52:04;;;;;;;6.73;3.80;;;3.20;99.90;;;;;;4974640;28;20033;-84
2023/12/12 04:54:29;;;;;;;19.17;6.70;;;3.20;99.90;;;;;;5018818;28;20116;-85
2023/12/12 04:56:55;;;;;;;12.17;6.13;;;3.20;99.90;;;;;;4991945;28;20046;-84
2023/12/12 04:59:21;;;;;;;14.43;6.50;;;3.20;99.90;;;;;;4977497;28;20052;-84
2023/12/12 05:01:46;;;;;;;8.27;5.10;;;3.10;99.90;;;;;;4992368;28;20621;-84
2023/12/12 05:04:12;;;;;;;12.47;5.40;;;3.10;99.90;;;;;;4976210;28;20125;-85
2023/12/12 05:06:38;;;;;;;10.33;5.57;;;3.10;99.90;;;;;;5022851;28;20044;-83
2023/12/12 05:09:04;;;;;;;11.93;6.37;;;3.10;99.90;;;;;;5003089;28;20119;-83
2023/12/12 05:11:29;;;;;;;10.47;6.87;;;3.10;99.90;;;;;;4976549;28;20105;-84
2023/12/12 05:13:56;;;;;;;23.83;9.40;;;3.10;99.90;;;;;;4992724;28;20059;-84
2023/12/12 05:16:23;;;;;;;13.73;7.23;;;3.10;99.90;;;;;;4994252;28;20075;-84
2023/12/12 05:18:49;;;;;;;14.57;5.47;;;3.10;99.90;;;;;;4982988;28;20116;-84
2023/12/12 05:21:15;;;;;;;30.40;8.23;;;3.10;99.90;;;;;;5001230;28;20057;-83
2023/12/12 05:23:41;;;;;;;53.60;10.03;;;3.20;99.90;;;;;;5022521;28;20490;-84
2023/12/12 05:26:07;;;;;;;109.47;12.90;;;3.20;99.90;;;;;;5016158;28;20049;-84
2023/12/12 05:28:33;;;;;;;144.83;14.67;;;3.20;99.90;;;;;;5011291;28;20563;-83
2023/12/12 05:30:59;;;;;;;73.30;12.27;;;3.20;99.90;;;;;;5021634;28;20056;-83
2023/12/12 05:33:24;;;;;;;130.77;15.70;;;3.20;99.90;;;;;;5000445;28;20109;-84
2023/12/12 05:35:50;;;;;;;222.90;19.87;;;3.30;99.90;;;;;;4988435;28;20041;-84
2023/12/12 05:38:16;;;;;;;211.30;19.53;;;3.30;99.90;;;;;;5000058;28;20045;-86
2023/12/12 05:40:42;;;;;;;326.30;26.27;;;3.30;99.90;;;;;;4995010;28;20618;-84
2023/12/12 05:43:09;;;;;;;333.50;26.27;;;3.30;99.90;;;;;;4974667;28;20099;-84
2023/12/12 05:45:35;;;;;;;122.00;14.53;;;3.30;99.90;;;;;;5002532;28;20053;-81
2023/12/12 05:48:03;;;;;;;94.50;12.93;;;3.30;99.90;;;;;;4993115;28;20638;-84
2023/12/12 05:50:29;;;;;;;176.50;17.30;;;3.30;99.90;;;;;;5004940;28;20069;-83
2023/12/12 05:52:55;;;;;;;332.77;25.43;;;3.30;99.90;;;;;;4995757;28;20053;-81
2023/12/12 05:55:21;;;;;;;164.10;15.40;;;3.40;99.90;;;;;;5017795;28;20041;-85
2023/12/12 05:57:48;;;;;;;127.27;15.10;;;3.40;99.90;;;;;;5023963;28;20061;-84
2023/12/12 06:00:14;;;;;;;251.03;21.10;;;3.40;99.90;;;;;;5017385;28;20060;-84
2023/12/12 06:02:40;;;;;;;310.97;23.13;;;3.40;99.90;;;;;;5003144;28;20108;-87
2023/12/12 06:05:07;;;;;;;229.40;18.57;;;3.50;99.90;;;;;;4994278;28;20498;-84
2023/12/12 06:07:37;;;;;;;306.03;23.20;;;3.50;99.90;;;;;;5009808;28;20045;-92
2023/12/12 06:10:08;;;;;;;220.87;18.27;;;3.50;99.90;;;;;;5002813;28;20403;-88
2023/12/12 06:12:34;;;;;;;398.63;26.13;;;3.50;99.90;;;;;;5028638;28;20556;-90
2023/12/12 06:15:00;;;;;;;156.50;13.93;;;3.60;99.90;;;;;;5004354;28;20081;-89
2023/12/12 06:17:26;;;;;;;143.80;15.10;;;3.60;99.90;;;;;;4975934;28;20061;-89
2023/12/12 06:19:52;;;;;;;254.97;21.47;;;3.60;99.90;;;;;;4978295;28;20874;-89
2023/12/12 06:22:18;;;;;;;309.07;23.90;;;3.70;99.90;;;;;;5003185;28;20045;-90
2023/12/12 06:24:45;;;;;;;127.03;14.37;;;3.60;99.90;;;;;;4990755;28;20049;-89
2023/12/12 06:27:10;;;;;;;284.50;24.97;;;3.60;99.90;;;;;;4985625;28;20084;-89
2023/12/12 06:29:36;;;;;;;180.03;16.50;;;3.60;99.90;;;;;;4978524;28;20060;-90
2023/12/12 06:32:02;;;;;;;143.27;15.60;;;3.70;99.90;;;;;;5007384;28;20077;-91
2023/12/12 06:34:28;;;;;;;240.00;19.53;;;3.70;99.90;;;;;;5008358;28;20069;-93
2023/12/12 06:36:54;;;;;;;202.73;18.23;;;3.70;99.90;;;;;;5003175;28;20045;-91
2023/12/12 06:39:20;;;;;;;207.13;19.50;;;3.70;99.90;;;;;;4977746;28;20041;-85
2023/12/12 06:41:46;;;;;;;122.93;15.23;;;3.70;99.90;;;;;;5010188;28;20049;-88
2023/12/12 06:44:11;;;;;;;70.00;11.77;;;3.80;99.90;;;;;;4993426;28;20064;-81
2023/12/12 06:46:38;;;;;;;98.23;13.93;;;3.80;99.90;;;;;;4989091;28;20044;-82
2023/12/12 06:49:06;;;;;;;247.73;23.00;;;3.80;99.90;;;;;;4996691;28;20354;-86
2023/12/12 06:51:35;;;;;;;79.03;11.73;;;3.80;99.90;;;;;;5023870;28;20041;-87
2023/12/12 06:54:00;;;;;;;139.97;16.30;;;3.80;99.90;;;;;;5005235;28;20054;-84
2023/12/12 06:56:26;;;;;;;111.43;17.07;;;3.90;99.90;;;;;;4986259;28;20412;-84
2023/12/12 06:58:52;;;;;;;200.83;18.87;;;3.90;99.90;;;;;;5016825;28;20057;-88
2023/12/12 07:01:18;;;;;;;136.63;16.90;;;3.80;99.90;;;;;;5008190;28;20466;-83
2023/12/12 07:03:43;;;;;;;100.63;14.17;;;3.90;99.90;;;;;;5021242;28;20088;-85
2023/12/12 07:06:09;;;;;;;103.07;14.57;;;3.90;99.90;;;;;;5033031;28;20049;-86
2023/12/12 07:08:35;;;;;;;130.60;15.40;;;3.90;99.90;;;;;;5017973;28;20048;-85
2023/12/12 07:11:02;;;;;;;159.00;19.27;;;4.00;99.90;;;;;;5039367;28;20120;-85
2023/12/12 07:13:28;;;;;;;342.67;27.60;;;4.00;99.90;;;;;;4997421;28;20084;-86
2023/12/12 07:15:54;;;;;;;264.00;23.10;;;4.00;99.90;;;;;;5013570;28;20057;-83
2023/12/12 07:18:19;;;;;;;225.67;20.37;;;4.00;99.90;;;;;;5020694;28;20054;-85
2023/12/12 07:20:46;;;;;;;213.67;24.37;;;4.00;99.90;;;;;;4997100;28;20042;-88
2023/12/12 07:23:11;;;;;;;110.97;15.80;;;4.10;99.90;;;;;;4995183;28;20064;-87
2023/12/12 07:25:38;;;;;;;171.80;20.50;;;4.10;99.90;;;;;;5008682;28;20048;-87
2023/12/12 07:28:04;;;;;;;296.03;32.63;;;4.10;99.90;;;;;;4992287;28;20045;-86
2023/12/12 07:30:32;;;;;;;109.70;17.30;;;4.10;99.90;;;;;;5004926;28;20713;-86
2023/12/12 07:32:58;;;;;;;148.63;19.77;;;4.20;99.90;;;;;;5031435;28;20050;-87
2023/12/12 07:35:24;;;;;;;75.27;15.20;;;4.20;99.90;;;;;;5016243;28;20044;-86
2023/12/12 07:37:50;;;;;;;149.43;19.10;;;4.20;99.90;;;;;;5004902;28;20269;-87
2023/12/12 07:40:16;;;;;;;127.63;17.97;;;4.20;99.90;;;;;;5029910;28;20026;-86
2023/12/12 07:42:41;;;;;;;145.53;19.37;;;4.20;99.90;;;;;;5042680;28;20056;-84
2023/12/12 07:45:08;;;;;;;92.23;16.60;;;4.30;99.90;;;;;;5036140;28;20128;-84
2023/12/12 07:47:34;;;;;;;73.40;16.53;;;4.30;99.90;;;;;;5020342;28;20038;-86
2023/12/12 07:49:59;;;;;;;178.43;23.60;;;4.30;99.90;;;;;;5038787;28;20052;-84
2023/12/12 07:52:26;;;;;;;79.73;15.70;;;4.30;99.90;;;;;;5027480;28;20474;-84
2023/12/12 07:54:52;;;;;;;114.13;18.90;;;4.40;99.90;;;;;;5006647;28;20041;-85
2023/12/12 07:57:17;;;;;;;145.97;22.83;;;4.40;99.90;;;;;;4996001;28;20125;-77
2023/12/12 07:59:44;;;;;;;111.40;17.80;;;4.40;99.90;;;;;;5021453;28;20071;-83
2023/12/12 08:02:10;;;;;;;83.53;17.77;;;4.50;99.90;;;;;;5040214;28;20096;-82
2023/12/12 08:04:36;;;;;;;113.67;21.87;;;4.50;99.90;;;;;;5040741;28;20053;-84
2023/12/12 08:07:03;;;;;;;141.27;24.57;;;4.60;99.90;;;;;;5035406;28;20047;-84
2023/12/12 08:09:29;;;;;;;158.80;24.83;;;4.60;99.90;;;;;;5033362;28;20041;-84
2023/12/12 08:11:56;;;;;;;288.80;43.70;;;4.60;99.90;;;;;;5041848;28;20045;-85
2023/12/12 08:14:21;;;;;;;229.73;40.67;;;4.70;99.90;;;;;;5042904;28;20060;-85
2023/12/12 08:16:47;;;;;;;330.83;57.20;;;4.80;99.90;;;;;;4992438;28;20050;-85
2023/12/12 08:19:14;;;;;;;223.70;47.00;;;5.00;99.90;;;;;;5035965;28;20069;-86
2023/12/12 08:21:40;;;;;;;198.63;39.90;;;5.10;99.90;;;;;;5017305;28;20112;-87
2023/12/12 08:24:06;;;;;;;332.73;58.13;;;5.20;99.90;;;;;;5023854;28;20067;-82
2023/12/12 08:26:48;;;;;;;366.87;61.17;;;5.30;99.90;;;;;;5038762;28;20042;-89
2023/12/12 08:29:14;;;;;;;321.60;58.00;;;5.40;99.90;;;;;;5054008;28;20044;-86
2023/12/12 08:31:41;;;;;;;437.87;76.57;;;5.40;99.90;;;;;;5045759;28;20050;-85
2023/12/12 08:34:07;;;;;;;256.10;50.83;;;5.50;99.90;;;;;;5024077;28;20063;-88
2023/12/12 08:36:33;;;;;;;317.07;57.77;;;5.50;99.90;;;;;;5023872;28;20052;-87
2023/12/12 08:38:59;;;;;;;415.93;68.40;;;5.50;99.90;;;;;;5051749;28;20060;-87
2023/12/12 08:41:28;;;;;;;354.27;63.63;;;5.50;99.90;;;;;;5034671;28;20062;-87
2023/12/12 08:43:54;;;;;;;461.37;71.80;;;5.50;99.90;;;;;;5027779;28;20072;-87
2023/12/12 08:46:26;;;;;;;357.47;60.13;;;5.50;99.90;;;;;;5050683;28;20053;-87
2023/12/12 08:48:55;;;;;;;368.02;67.00;;;5.50;99.90;;;;;;5034800;28;20046;-88
2023/12/12 08:51:21;;;;;;;403.17;67.47;;;5.50;99.90;;;;;;5020578;28;20124;-87
2023/12/12 08:53:47;;;;;;;442.60;71.80;;;5.60;99.90;;;;;;5043399;28;20196;-87
2023/12/12 08:56:17;;;;;;;463.87;79.57;;;5.60;99.90;;;;;;5035889;28;20076;-87
2023/12/12 08:58:49;;;;;;;478.50;79.73;;;5.60;99.90;;;;;;5034605;28;20068;-88
2023/12/12 09:01:15;;;;;;;443.42;70.65;;;5.60;99.90;;;;;;5019642;28;20064;-87
2023/12/12 09:03:41;;;;;;;305.77;59.87;;;5.70;99.90;;;;;;5033418;28;20049;-88
2023/12/12 09:06:07;;;;;;;356.10;59.43;;;5.70;99.90;;;;;;5008333;28;20477;-87
2023/12/12 09:08:33;;;;;;;354.13;64.13;;;5.70;99.90;;;;;;5027866;28;20523;-88
2023/12/12 09:10:59;;;;;;;576.10;102.10;;;5.70;99.90;;;;;;5039703;28;20053;-88
2023/12/12 09:13:28;;;;;;;415.53;77.50;;;5.70;99.90;;;;;;5030377;28;20465;-88
2023/12/12 09:15:54;;;;;;;520.87;95.40;;;5.80;99.90;;;;;;5042169;28;20540;-88
2023/12/12 09:18:20;;;;;;;410.43;82.57;;;5.70;99.90;;;;;;5025596;28;20053;-88
2023/12/12 09:20:47;;;;;;;302.83;67.63;;;5.80;99.90;;;;;;5012741;28;20154;-87
2023/12/12 09:23:13;;;;;;;253.33;58.47;;;5.80;99.90;;;;;;5025692;28;20406;-89
2023/12/12 09:25:39;;;;;;;437.87;84.30;;;5.80;99.90;;;;;;5036148;28;20251;-89
2023/12/12 09:28:05;;;;;;;370.77;79.43;;;5.80;99.90;;;;;;5047277;28;20128;-88
2023/12/12 09:30:31;;;;;;;237.37;54.57;;;5.80;99.90;;;;;;5036743;28;20072;-88
2023/12/12 09:32:57;;;;;;;424.53;72.23;;;5.80;99.90;;;;;;5020986;28;20481;-88
2023/12/12 09:35:24;;;;;;;331.20;59.17;;;5.90;99.90;;;;;;5034213;28;20143;-88
2023/12/12 09:37:50;;;;;;;459.23;77.20;;;5.80;99.90;;;;;;5010448;28;20116;-88
2023/12/12 09:40:16;;;;;;;408.40;70.87;;;5.80;99.90;;;;;;5022515;28;20037;-88
2023/12/12 09:42:42;;;;;;;361.93;63.80;;;5.80;99.90;;;;;;5031725;28;20612;-83
2023/12/12 09:45:15;;;;;;;271.30;55.00;;;5.80;99.90;;;;;;5033250;28;20041;-86
2023/12/12 09:47:44;;;;;;;590.63;94.00;;;5.90;99.90;;;;;;5037745;28;20151;-85
2023/12/12 09:50:11;;;;;;;331.13;62.37;;;5.80;99.90;;;;;;5021342;28;20059;-85
2023/12/12 09:52:38;;;;;;;296.77;56.27;;;5.90;99.90;;;;;;5009886;28;20045;-86
2023/12/12 09:55:04;;;;;;;239.57;55.60;;;5.90;99.90;;;;;;5022299;28;20041;-85
2023/12/12 09:57:32;;;;;;;171.93;53.40;;;5.90;99.90;;;;;;5026696;28;20108;-81
2023/12/12 09:59:58;;;;;;;407.47;75.70;;;5.90;99.90;;;;;;5028516;28;20132;-87
2023/12/12 10:02:33;;;;;;;326.53;55.37;;;5.90;99.90;;;;;;5024905;28;20040;-84
2023/12/12 10:05:01;;;;;;;331.93;58.60;;;5.90;99.90;;;;;;5035272;28;20041;-85
2023/12/12 10:07:27;;;;;;;550.27;87.30;;;5.90;99.90;;;;;;5024943;28;20057;-83
2023/12/12 10:09:53;;;;;;;287.53;57.03;;;5.90;99.90;;;;;;5037795;28;20048;-84
2023/12/12 10:12:19;;;;;;;297.70;59.77;;;5.90;99.90;;;;;;5030867;28;20044;-83
2023/12/12 10:14:45;;;;;;;264.00;55.50;;;5.90;99.90;;;;;;5035765;28;20108;-85
2023/12/12 10:17:11;;;;;;;154.40;49.30;;;6.00;99.90;;;;;;5038789;28;20316;-84
2023/12/12 10:19:38;;;;;;;278.77;55.53;;;6.00;99.90;;;;;;5009699;28;20049;-84
2023/12/12 10:22:08;;;;;;;186.40;54.87;;;5.90;99.90;;;;;;5018435;28;20736;-83
2023/12/12 10:24:35;;;;;;;248.03;59.10;;;6.00;99.90;;;;;;5046889;28;20104;-83
2023/12/12 10:27:03;;;;;;;187.73;50.40;;;6.00;99.90;;;;;;5033466;28;20045;-84
2023/12/12 10:29:30;;;;;;;377.43;70.67;;;6.10;99.90;;;;;;5011290;28;20101;-84
2023/12/12 10:32:02;;;;;;;126.67;46.53;;;6.10;99.90;;;;;;5019130;28;20065;-86
2023/12/12 10:34:28;;;;;;;227.13;53.23;;;6.10;99.90;;;;;;5043944;28;20417;-84
2023/12/12 10:36:56;;;;;;;295.83;59.03;;;6.20;99.90;;;;;;5037177;28;20042;-84
2023/12/12 10:39:22;;;;;;;262.70;48.97;;;6.10;99.90;;;;;;5042900;28;20045;-84
2023/12/12 10:41:55;;;;;;;270.10;50.33;;;6.10;99.90;;;;;;5029015;28;20123;-84
2023/12/12 10:44:34;;;;;;;291.40;56.07;;;6.10;99.90;;;;;;5023846;28;20064;-83
2023/12/12 10:47:03;;;;;;;250.83;51.57;;;6.10;99.90;;;;;;5031950;28;20044;-84
2023/12/12 10:49:33;;;;;;;243.17;50.83;;;6.10;99.90;;;;;;5041763;28;20048;-84
2023/12/12 10:52:05;;;;;;;267.83;49.27;;;6.10;99.90;;;;;;5036425;28;20053;-84
2023/12/12 10:54:33;;;;;;;141.47;44.97;;;6.10;99.90;;;;;;5025656;28;20045;-83
2023/12/12 10:57:01;;;;;;;184.80;51.23;;;6.10;99.90;;;;;;5024732;28;20076;-83
2023/12/12 10:59:27;;;;;;;123.40;47.30;;;6.10;99.90;;;;;;5043522;28;20049;-84
2023/12/12 11:01:54;;;;;;;123.23;44.50;;;6.10;99.90;;;;;;5035764;28;20064;-84
2023/12/12 11:04:21;;;;;;;120.73;42.57;;;6.10;99.90;;;;;;5027618;28;20108;-85
2023/12/12 11:06:47;;;;;;;177.83;51.77;;;6.10;99.90;;;;;;5033734;28;20071;-85
2023/12/12 11:09:16;;;;;;;99.40;43.70;;;6.00;99.90;;;;;;5022833;28;20252;-86
2023/12/12 11:11:44;;;;;;;58.20;34.80;;;6.10;99.90;;;;;;5027705;28;20606;-85
2023/12/12 11:14:11;;;;;;;63.60;36.63;;;6.00;99.90;;;;;;5009336;28;20044;-85
2023/12/12 11:16:37;;;;;;;82.07;44.30;;;6.10;99.90;;;;;;5003168;28;20065;-85
2023/12/12 11:19:04;;;;;;;61.50;36.50;;;6.00;99.90;;;;;;5032946;28;20061;-85
2023/12/12 11:21:51;;;;;;;70.77;41.70;;;6.10;99.90;;;;;;5045347;28;20068;-86
2023/12/12 11:24:18;;;;;;;72.63;43.30;;;6.10;99.90;;;;;;5042822;28;20050;-84
2023/12/12 11:26:46;;;;;;;68.63;40.07;;;6.10;99.90;;;;;;5033530;28;20138;-85
2023/12/12 11:29:14;;;;;;;57.03;37.03;;;6.10;99.90;;;;;;5020757;28;20502;-85
2023/12/12 11:32:00;;;;;;;72.40;41.60;;;6.10;99.90;;;;;;5028182;28;20045;-81
2023/12/12 11:34:34;;;;;;;53.73;33.47;;;6.20;99.90;;;;;;5008563;28;20046;-84
2023/12/12 11:37:00;;;;;;;55.30;35.20;;;6.30;99.90;;;;;;5013900;28;20034;-85
2023/12/12 11:39:49;;;;;;;54.53;34.67;;;6.20;99.90;;;;;;5038689;28;20033;-84
2023/12/12 11:42:24;;;;;;;49.97;32.83;;;6.20;99.90;;;;;;5031012;28;20149;-84
2023/12/12 11:44:54;;;;;;;49.43;32.00;;;6.20;99.90;;;;;;5053516;28;20037;-84
2023/12/12 11:47:25;;;;;;;45.27;30.27;;;6.20;99.90;;;;;;5035196;28;20174;-87
2023/12/12 11:50:11;;;;;;;50.60;31.53;;;6.20;99.90;;;;;;5033485;28;20057;-85
2023/12/12 11:52:37;;;;;;;63.67;35.97;;;6.30;99.90;;;;;;5024825;28;20130;-85
2023/12/12 11:55:03;;;;;;;73.40;40.33;;;6.30;99.90;;;;;;5025985;28;20061;-85
2023/12/12 11:57:29;;;;;;;83.47;45.17;;;6.30;99.90;;;;;;5030346;28;20096;-84
2023/12/12 11:59:55;;;;;;;84.67;47.10;;;6.30;99.90;;;;;;5043399;28;20045;-84
2023/12/12 12:02:20;;;;;;;74.70;43.80;;;6.30;99.90;;;;;;5029177;28;20409;-84
2023/12/12 12:04:46;;;;;;;83.03;44.80;;;6.30;99.90;;;;;;5027209;28;20410;-84
2023/12/12 12:07:12;;;;;;;63.43;35.20;;;6.30;99.90;;;;;;5021278;28;20056;-85
2023/12/12 12:09:42;;;;;;;55.70;32.83;;;6.30;99.90;;;;;;5006989;28;20041;-84
2023/12/12 12:12:10;;;;;;;70.00;41.30;;;6.40;99.90;;;;;;5036790;28;20049;-84
2023/12/12 12:14:36;;;;;;;72.10;39.77;;;6.40;99.90;;;;;;5039386;28;20097;-84
2023/12/12 12:17:02;;;;;;;80.83;41.60;;;6.40;99.90;;;;;;5029907;28;20062;-84
2023/12/12 12:19:38;;;;;;;62.20;35.47;;;6.40;99.90;;;;;;5023889;28;20057;-85
2023/12/12 12:22:06;;;;;;;64.43;38.43;;;6.40;99.90;;;;;;5029073;28;20064;-83
2023/12/12 12:24:33;;;;;;;68.73;39.57;;;6.40;99.90;;;;;;5032719;28;20053;-84
2023/12/12 12:26:59;;;;;;;66.37;38.50;;;6.40;99.90;;;;;;5023278;28;20048;-82
2023/12/12 12:29:25;;;;;;;66.73;38.83;;;6.40;99.90;;;;;;5021177;28;20042;-84
2023/12/12 12:31:54;;;;;;;66.27;36.80;;;6.40;99.90;;;;;;5026913;28;20037;-84
2023/12/12 12:34:24;;;;;;;67.90;40.50;;;6.50;99.90;;;;;;5035133;28;20076;-85
2023/12/12 12:36:53;;;;;;;60.60;36.57;;;6.50;99.90;;;;;;5030591;28;20565;-84
2023/12/12 12:39:19;;;;;;;60.57;36.23;;;6.50;99.90;;;;;;5025429;28;20053;-84